Time;durP1;ratioP1;P1;durP2;ratioP2;P2;SDS_P1;SDS_P2;PMS_P1;PMS_P2;Temp;Humidity;BMP_temperature;BMP_pressure;BME280_temperature;BME280_humidity;BME280_pressure;Samples;Min_cycle;Max_cycle;Signal;HPM_P1;HPM_P2
2022/06/01 00:00:08;;;;;;;;;2.00;0.75;;;;;;;;5118345;27;8775;-47
2022/06/01 00:02:55;;;;;;;;;3.50;3.50;;;;;;;;5118843;27;8791;-46
2022/06/01 00:06:05;;;;;;;;;3.50;2.50;;;;;;;;5119872;27;8779;-50
2022/06/01 00:08:51;;;;;;;;;3.75;2.50;;;;;;;;5119488;27;8889;-44
2022/06/01 00:11:36;;;;;;;;;4.25;4.00;;;;;;;;5119613;27;8790;-43
2022/06/01 00:14:23;;;;;;;;;8.75;6.00;;;;;;;;5119651;27;9359;-46
2022/06/01 00:17:09;;;;;;;;;9.75;7.00;;;;;;;;5119424;27;8822;-46
2022/06/01 00:20:09;;;;;;;;;11.75;7.00;;;;;;;;5119273;27;8790;-49
2022/06/01 00:22:56;;;;;;;;;7.75;7.00;;;;;;;;5119273;27;8799;-44
2022/06/01 00:25:42;;;;;;;;;10.75;7.50;;;;;;;;5119437;27;8786;-45
2022/06/01 00:28:27;;;;;;;;;12.00;8.00;;;;;;;;5118470;27;8786;-46
2022/06/01 00:31:13;;;;;;;;;9.50;7.00;;;;;;;;5119174;27;8783;-46
2022/06/01 00:34:01;;;;;;;;;7.00;7.00;;;;;;;;5119275;27;9661;-45
2022/06/01 00:36:51;;;;;;;;;14.50;11.00;;;;;;;;5119088;27;8775;-45
2022/06/01 00:39:38;;;;;;;;;16.50;16.00;;;;;;;;5118800;27;9569;-48
2022/06/01 00:42:30;;;;;;;;;21.50;17.25;;;;;;;;5119133;27;8810;-43
2022/06/01 00:45:18;;;;;;;;;13.75;13.00;;;;;;;;5119053;27;8778;-45
2022/06/01 00:48:05;;;;;;;;;16.50;13.75;;;;;;;;5118695;27;8779;-43
2022/06/01 00:50:49;;;;;;;;;14.25;11.75;;;;;;;;5118843;27;8771;-45
2022/06/01 00:53:35;;;;;;;;;14.00;11.75;;;;;;;;5118867;27;8767;-48
2022/06/01 00:56:36;;;;;;;;;17.00;11.00;;;;;;;;5118516;27;8790;-44
2022/06/01 00:59:22;;;;;;;;;11.25;9.00;;;;;;;;5118506;27;8778;-44
2022/06/01 01:02:08;;;;;;;;;13.25;11.75;;;;;;;;5118464;27;8783;-47
2022/06/01 01:04:56;;;;;;;;;11.25;9.00;;;;;;;;5118604;27;8767;-47
2022/06/01 01:07:41;;;;;;;;;12.50;10.25;;;;;;;;5118538;27;8778;-50
2022/06/01 01:10:33;;;;;;;;;14.00;12.25;;;;;;;;5118248;27;8782;-45
2022/06/01 01:13:18;;;;;;;;;11.00;11.00;;;;;;;;5118411;27;8790;-46
2022/06/01 01:16:09;;;;;;;;;14.75;12.75;;;;;;;;5117530;27;8758;-49
2022/06/01 01:18:55;;;;;;;;;16.50;14.00;;;;;;;;5118156;27;8786;-46
2022/06/01 01:21:58;;;;;;;;;26.25;19.50;;;;;;;;5118159;27;8794;-44
2022/06/01 01:25:01;;;;;;;;;22.50;17.75;;;;;;;;5118031;27;8775;-46
2022/06/01 01:27:47;;;;;;;;;29.50;27.75;;;;;;;;5117865;27;8790;-48
2022/06/01 01:30:42;;;;;;;;;31.50;29.00;;;;;;;;5118122;27;9541;-45
2022/06/01 01:33:28;;;;;;;;;31.25;28.50;;;;;;;;5117974;27;8771;-48
2022/06/01 01:36:14;;;;;;;;;36.00;30.75;;;;;;;;5117631;27;8767;-44
2022/06/01 01:39:09;;;;;;;;;39.50;32.00;;;;;;;;5117928;27;9404;-49
2022/06/01 01:41:56;;;;;;;;;39.25;32.25;;;;;;;;5117776;27;8791;-46
2022/06/01 01:44:40;;;;;;;;;39.00;32.50;;;;;;;;5117622;27;8783;-46
2022/06/01 01:47:29;;;;;;;;;45.50;35.00;;;;;;;;5117834;27;8783;-47
2022/06/01 01:50:13;;;;;;;;;41.50;33.75;;;;;;;;5117722;27;8766;-45
2022/06/01 01:53:01;;;;;;;;;43.00;33.75;;;;;;;;5117655;27;8894;-45
2022/06/01 01:56:04;;;;;;;;;39.00;31.75;;;;;;;;5117615;27;8786;-44
2022/06/01 01:59:07;;;;;;;;;39.00;32.75;;;;;;;;5117380;27;9561;-46
2022/06/01 02:02:00;;;;;;;;;46.25;34.25;;;;;;;;5117356;27;8810;-48
2022/06/01 02:08:26;;;;;;;;;43.75;35.00;;;;;;;;5117478;27;8786;-48
2022/06/01 02:14:42;;;;;;;;;43.25;34.50;;;;;;;;5117609;27;8787;-44
2022/06/01 02:17:37;;;;;;;;;36.50;31.75;;;;;;;;5117378;27;8766;-45
2022/06/01 02:20:24;;;;;;;;;41.50;34.75;;;;;;;;5116981;27;8790;-44
2022/06/01 02:23:13;;;;;;;;;54.25;41.00;;;;;;;;5116573;27;8790;-46
2022/06/01 02:25:59;;;;;;;;;51.75;40.25;;;;;;;;5117007;27;8794;-44
2022/06/01 02:28:46;;;;;;;;;47.25;35.75;;;;;;;;5116916;27;11122;-46
2022/06/01 02:31:30;;;;;;;;;44.75;36.25;;;;;;;;5117107;27;8815;-47
2022/06/01 02:34:15;;;;;;;;;35.25;32.00;;;;;;;;5116769;27;8790;-44
2022/06/01 02:37:00;;;;;;;;;37.25;32.25;;;;;;;;5116538;27;8807;-46
2022/06/01 02:39:52;;;;;;;;;38.25;30.00;;;;;;;;5117057;27;9545;-47
2022/06/01 02:42:43;;;;;;;;;40.25;33.00;;;;;;;;5116888;28;8822;-46
2022/06/01 02:45:27;;;;;;;;;37.00;30.25;;;;;;;;5116957;28;8798;-49
2022/06/01 02:48:15;;;;;;;;;33.00;29.25;;;;;;;;5116736;28;8810;-47
2022/06/01 02:51:00;;;;;;;;;36.25;32.00;;;;;;;;5116826;28;8783;-46
2022/06/01 02:53:49;;;;;;;;;37.25;31.00;;;;;;;;5117055;28;8795;-47
2022/06/01 02:56:34;;;;;;;;;42.75;31.50;;;;;;;;5115498;28;8791;-48
2022/06/01 02:59:28;;;;;;;;;38.00;32.00;;;;;;;;5116638;28;8795;-52
2022/06/01 03:02:15;;;;;;;;;31.75;28.50;;;;;;;;5116534;28;8830;-51
2022/06/01 03:05:01;;;;;;;;;37.25;29.50;;;;;;;;5116587;28;8810;-50
2022/06/01 03:07:45;;;;;;;;;33.00;29.00;;;;;;;;5116654;28;8787;-51
2022/06/01 03:10:33;;;;;;;;;34.25;30.00;;;;;;;;5116667;28;9581;-48
2022/06/01 03:13:37;;;;;;;;;38.25;31.00;;;;;;;;5116725;28;8783;-46
2022/06/01 03:16:21;;;;;;;;;36.25;30.25;;;;;;;;5116434;28;8783;-51
2022/06/01 03:19:08;;;;;;;;;32.75;29.50;;;;;;;;5116745;28;8807;-49
2022/06/01 03:21:53;;;;;;;;;37.00;30.25;;;;;;;;5115422;28;9566;-48
2022/06/01 03:24:40;;;;;;;;;39.25;29.25;;;;;;;;5094409;28;8792;-48
2022/06/01 03:27:28;;;;;;;;;33.50;25.75;;;;;;;;5096056;28;8785;-49
2022/06/01 03:30:15;;;;;;;;;32.25;25.00;;;;;;;;5096068;28;8785;-47
2022/06/01 03:33:03;;;;;;;;;30.75;27.25;;;;;;;;5096075;28;9587;-47
2022/06/01 03:35:47;;;;;;;;;26.75;24.75;;;;;;;;5099923;28;8785;-48
2022/06/01 03:38:33;;;;;;;;;26.25;24.75;;;;;;;;5099601;28;9556;-48
2022/06/01 03:41:20;;;;;;;;;33.00;27.50;;;;;;;;5099321;28;8805;-47
2022/06/01 03:47:11;;;;;;;;;25.00;25.00;;;;;;;;5100033;28;8772;-48
2022/06/01 03:49:57;;;;;;;;;26.75;25.50;;;;;;;;5099731;28;8780;-47
2022/06/01 03:52:42;;;;;;;;;29.75;26.25;;;;;;;;5099689;28;8808;-48
2022/06/01 03:55:27;;;;;;;;;29.00;23.75;;;;;;;;5099365;28;8804;-47
2022/06/01 03:58:14;;;;;;;;;27.50;22.50;;;;;;;;5099441;28;8812;-52
2022/06/01 04:00:58;;;;;;;;;27.50;25.00;;;;;;;;5099383;28;8804;-50
2022/06/01 04:03:44;;;;;;;;;28.00;22.75;;;;;;;;5099272;28;8812;-48
2022/06/01 04:06:41;;;;;;;;;32.00;28.25;;;;;;;;5099347;28;8831;-46
2022/06/01 04:09:35;;;;;;;;;37.25;30.50;;;;;;;;5099321;28;8792;-50
2022/06/01 04:12:38;;;;;;;;;39.25;32.75;;;;;;;;5099174;28;8800;-50
2022/06/01 04:15:22;;;;;;;;;39.50;32.50;;;;;;;;5099017;28;8785;-48
2022/06/01 04:18:07;;;;;;;;;40.75;32.75;;;;;;;;5093377;28;9587;-50
2022/06/01 04:20:53;;;;;;;;;40.75;31.50;;;;;;;;5116055;27;8794;-46
2022/06/01 04:23:38;;;;;;;;;32.25;28.75;;;;;;;;5119674;27;8782;-53
2022/06/01 04:26:23;;;;;;;;;28.50;26.25;;;;;;;;5119509;27;8759;-47
2022/06/01 04:29:07;;;;;;;;;34.00;29.50;;;;;;;;5119294;27;8771;-51
2022/06/01 04:31:59;;;;;;;;;30.00;25.00;;;;;;;;5103987;27;8792;-46
2022/06/01 04:34:46;;;;;;;;;32.75;29.00;;;;;;;;5098836;28;8784;-49
2022/06/01 04:37:33;;;;;;;;;34.50;29.75;;;;;;;;5091691;28;8784;-48
2022/06/01 04:40:21;;;;;;;;;45.75;36.25;;;;;;;;5098583;28;9255;-50
2022/06/01 04:43:08;;;;;;;;;40.50;33.50;;;;;;;;5095649;28;9542;-50
2022/06/01 04:45:54;;;;;;;;;42.25;33.75;;;;;;;;5097771;28;8781;-49
2022/06/01 04:48:50;;;;;;;;;47.75;37.50;;;;;;;;5083065;28;8785;-51
2022/06/01 04:51:41;;;;;;;;;47.50;39.00;;;;;;;;5098133;28;8799;-50
2022/06/01 04:54:25;;;;;;;;;43.50;33.25;;;;;;;;5098291;28;8783;-50
2022/06/01 04:57:10;;;;;;;;;43.25;32.75;;;;;;;;5098281;28;8781;-47
2022/06/01 04:59:56;;;;;;;;;32.75;27.00;;;;;;;;5098224;28;8836;-50
2022/06/01 05:02:42;;;;;;;;;30.75;25.75;;;;;;;;5098057;28;8797;-46
2022/06/01 05:05:27;;;;;;;;;26.50;23.25;;;;;;;;5098112;28;8781;-48
2022/06/01 05:08:13;;;;;;;;;27.75;23.00;;;;;;;;5098060;28;8785;-49
2022/06/01 05:11:00;;;;;;;;;25.25;23.50;;;;;;;;5098253;28;8769;-51
2022/06/01 05:14:10;;;;;;;;;21.50;19.00;;;;;;;;5098084;28;8773;-48
2022/06/01 05:16:59;;;;;;;;;28.00;20.50;;;;;;;;5097626;28;8769;-49
2022/06/01 05:19:51;;;;;;;;;19.75;18.75;;;;;;;;5054537;28;8875;-50
2022/06/01 05:22:38;;;;;;;;;21.00;19.75;;;;;;;;5054560;28;8821;-48
2022/06/01 05:25:26;;;;;;;;;25.75;22.00;;;;;;;;5040660;28;8806;-49
2022/06/01 05:28:11;;;;;;;;;27.25;21.50;;;;;;;;5054694;28;8798;-50
2022/06/01 05:30:56;;;;;;;;;26.00;21.25;;;;;;;;5054486;28;8817;-45
2022/06/01 05:33:43;;;;;;;;;34.50;30.50;;;;;;;;5048725;28;8780;-48
2022/06/01 05:36:29;;;;;;;;;38.00;29.50;;;;;;;;5049138;28;8807;-49
2022/06/01 05:39:15;;;;;;;;;39.25;32.50;;;;;;;;5047132;28;8786;-48
2022/06/01 05:41:59;;;;;;;;;35.50;31.75;;;;;;;;5052589;28;8794;-49
2022/06/01 05:44:57;;;;;;;;;35.25;30.25;;;;;;;;5054154;28;8785;-48
2022/06/01 05:47:43;;;;;;;;;34.00;25.50;;;;;;;;5054279;28;8793;-47
2022/06/01 05:50:27;;;;;;;;;30.25;26.00;;;;;;;;5047990;28;8776;-49
2022/06/01 05:53:12;;;;;;;;;38.25;31.25;;;;;;;;5037623;28;8805;-48
2022/06/01 05:56:02;;;;;;;;;33.00;29.75;;;;;;;;5059282;27;8788;-49
2022/06/01 05:58:50;;;;;;;;;27.50;26.50;;;;;;;;5117272;27;8798;-49
2022/06/01 06:01:40;;;;;;;;;30.00;26.00;;;;;;;;5117497;27;8803;-48
2022/06/01 06:04:27;;;;;;;;;26.00;25.50;;;;;;;;5117458;27;8771;-49
2022/06/01 06:07:12;;;;;;;;;23.25;14.75;;;;;;;;5117615;27;8787;-48
2022/06/01 06:09:56;;;;;;;;;32.00;27.00;;;;;;;;5111324;27;8788;-48
2022/06/01 06:12:43;;;;;;;;;30.25;26.75;;;;;;;;5101831;27;8792;-48
2022/06/01 06:15:30;;;;;;;;;34.50;30.75;;;;;;;;5117363;27;9541;-50
2022/06/01 06:18:15;;;;;;;;;36.00;30.50;;;;;;;;5117271;27;8771;-47
2022/06/01 06:21:00;;;;;;;;;32.75;30.00;;;;;;;;5117170;27;8803;-48
2022/06/01 06:23:45;;;;;;;;;32.50;29.00;;;;;;;;5117162;27;8787;-48
2022/06/01 06:26:48;;;;;;;;;30.50;25.25;;;;;;;;5117235;27;8799;-48
2022/06/01 06:29:45;;;;;;;;;36.25;30.75;;;;;;;;5117251;27;8783;-48
2022/06/01 06:32:30;;;;;;;;;28.50;25.50;;;;;;;;5101602;27;8824;-46
2022/06/01 06:35:14;;;;;;;;;34.75;31.75;;;;;;;;5101501;27;8773;-49
2022/06/01 06:38:03;;;;;;;;;38.25;32.75;;;;;;;;5110608;27;8850;-50
2022/06/01 06:40:55;;;;;;;;;35.25;30.50;;;;;;;;5116954;27;9582;-50
2022/06/01 06:43:59;;;;;;;;;40.00;30.75;;;;;;;;5013943;28;8941;-51
2022/06/01 06:47:08;;;;;;;;;32.00;28.00;;;;;;;;5012428;28;8815;-52
2022/06/01 06:50:06;;;;;;;;;33.50;29.25;;;;;;;;4997013;28;8825;-49
2022/06/01 06:53:00;;;;;;;;;34.00;30.50;;;;;;;;4998463;28;9762;-45
2022/06/01 06:55:54;;;;;;;;;43.75;33.75;;;;;;;;4954968;28;9012;-48
2022/06/01 06:58:40;;;;;;;;;51.00;41.50;;;;;;;;4955088;28;8814;-48
2022/06/01 07:01:25;;;;;;;;;49.50;36.50;;;;;;;;4955262;28;8858;-47
2022/06/01 07:04:09;;;;;;;;;50.00;38.75;;;;;;;;4955292;28;8957;-50
2022/06/01 07:06:53;;;;;;;;;45.25;34.75;;;;;;;;4955182;28;8815;-47
2022/06/01 07:09:45;;;;;;;;;42.25;34.00;;;;;;;;4957924;28;8803;-48
2022/06/01 07:12:30;;;;;;;;;40.00;33.25;;;;;;;;4959032;28;8818;-50
2022/06/01 07:15:15;;;;;;;;;43.50;35.25;;;;;;;;4958945;28;8827;-51
2022/06/01 07:18:00;;;;;;;;;41.75;36.25;;;;;;;;4958854;28;8815;-46
2022/06/01 07:20:47;;;;;;;;;45.50;37.50;;;;;;;;4979754;28;8799;-48
2022/06/01 07:23:37;;;;;;;;;46.00;38.00;;;;;;;;5015524;28;8809;-47
2022/06/01 07:26:24;;;;;;;;;43.25;36.50;;;;;;;;5017539;28;8809;-56
2022/06/01 07:29:21;;;;;;;;;45.25;35.50;;;;;;;;5017055;28;8951;-57
2022/06/01 07:32:08;;;;;;;;;41.25;34.75;;;;;;;;5051305;27;8786;-59
2022/06/01 07:35:04;;;;;;;;;43.25;33.00;;;;;;;;5098150;28;8792;-55
2022/06/01 07:44:25;;;;;;;;;45.25;36.50;;;;;;;;5099784;28;8776;-60
2022/06/01 07:47:21;;;;;;;;;50.25;40.25;;;;;;;;5099738;28;8854;-56
2022/06/01 07:50:06;;;;;;;;;46.25;37.50;;;;;;;;5099442;28;8906;-58
2022/06/01 07:52:56;;;;;;;;;43.00;35.25;;;;;;;;5099542;28;8796;-55
2022/06/01 07:55:50;;;;;;;;;47.25;37.00;;;;;;;;5099374;28;8757;-52
2022/06/01 07:58:49;;;;;;;;;49.25;41.50;;;;;;;;5099419;28;9686;-56
2022/06/01 08:01:33;;;;;;;;;49.00;38.75;;;;;;;;5099245;28;8808;-58
2022/06/01 08:04:19;;;;;;;;;50.50;37.25;;;;;;;;5099272;28;9551;-50
2022/06/01 08:07:12;;;;;;;;;51.00;40.50;;;;;;;;5099240;28;8785;-58
2022/06/01 08:10:18;;;;;;;;;47.50;37.00;;;;;;;;5092814;28;8769;-52
2022/06/01 08:13:07;;;;;;;;;49.00;38.00;;;;;;;;5098267;28;8792;-56
2022/06/01 08:15:55;;;;;;;;;49.50;39.00;;;;;;;;5101794;27;8779;-56
2022/06/01 08:18:48;;;;;;;;;49.00;40.50;;;;;;;;5118636;27;8787;-52
2022/06/01 08:21:34;;;;;;;;;50.00;39.50;;;;;;;;5102471;27;8928;-55
2022/06/01 08:24:19;;;;;;;;;45.25;35.75;;;;;;;;5118652;27;8848;-53
2022/06/01 08:27:08;;;;;;;;;42.50;33.50;;;;;;;;5118824;27;8770;-51
2022/06/01 08:29:54;;;;;;;;;40.25;32.75;;;;;;;;5118738;27;8767;-54
2022/06/01 08:32:39;;;;;;;;;40.75;35.00;;;;;;;;5118524;27;8787;-54
2022/06/01 08:35:26;;;;;;;;;44.00;33.75;;;;;;;;5118969;27;9502;-50
2022/06/01 08:38:13;;;;;;;;;40.50;33.50;;;;;;;;5118203;27;9423;-53
2022/06/01 08:41:03;;;;;;;;;40.75;34.50;;;;;;;;5117341;27;9577;-55
2022/06/01 08:43:53;;;;;;;;;35.75;31.75;;;;;;;;5118785;27;8779;-53
2022/06/01 08:46:39;;;;;;;;;29.75;27.75;;;;;;;;5118724;27;8937;-49
2022/06/01 08:49:30;;;;;;;;;36.75;30.00;;;;;;;;5117758;27;8786;-55
2022/06/01 08:52:14;;;;;;;;;34.50;31.00;;;;;;;;5118695;27;8775;-54
2022/06/01 08:55:08;;;;;;;;;33.25;25.50;;;;;;;;5118472;27;8927;-55
2022/06/01 08:57:53;;;;;;;;;34.00;28.25;;;;;;;;5118272;27;8774;-51
2022/06/01 09:00:42;;;;;;;;;29.50;27.25;;;;;;;;5118019;27;9664;-53
2022/06/01 09:03:34;;;;;;;;;26.00;21.75;;;;;;;;5108433;27;8777;-54
2022/06/01 09:06:38;;;;;;;;;26.25;26.00;;;;;;;;5097378;28;8797;-51
2022/06/01 09:09:44;;;;;;;;;30.00;25.50;;;;;;;;5079433;28;8785;-53
2022/06/01 09:12:29;;;;;;;;;30.25;25.50;;;;;;;;5098019;28;8801;-58
2022/06/01 09:15:21;;;;;;;;;24.75;22.25;;;;;;;;5097766;28;8781;-55
2022/06/01 09:18:06;;;;;;;;;27.25;23.25;;;;;;;;5097824;28;8788;-56
2022/06/01 09:23:58;;;;;;;;;24.50;19.00;;;;;;;;5097836;28;8785;-55
2022/06/01 09:27:02;;;;;;;;;30.75;22.25;;;;;;;;5097271;28;8788;-50
2022/06/01 09:30:01;;;;;;;;;27.00;22.50;;;;;;;;5097227;28;8784;-56
2022/06/01 09:33:02;;;;;;;;;22.00;21.25;;;;;;;;5097402;28;8785;-53
2022/06/01 09:36:22;;;;;;;;;32.75;28.00;;;;;;;;5097332;28;8761;-54
2022/06/01 09:39:16;;;;;;;;;23.25;20.75;;;;;;;;5086679;28;8811;-52
2022/06/01 09:42:30;;;;;;;;;25.00;22.75;;;;;;;;5076865;28;8807;-55
2022/06/01 09:45:47;;;;;;;;;23.50;19.75;;;;;;;;5073897;28;9538;-52
2022/06/01 09:48:54;;;;;;;;;26.50;25.00;;;;;;;;5076366;28;8779;-53
2022/06/01 09:51:40;;;;;;;;;24.25;21.00;;;;;;;;5076342;28;8835;-53
2022/06/01 09:54:30;;;;;;;;;26.00;23.25;;;;;;;;5076945;28;8779;-53
2022/06/01 09:57:22;;;;;;;;;21.50;16.50;;;;;;;;5076978;28;8780;-55
2022/06/01 10:07:00;;;;;;;;;24.75;24.00;;;;;;;;5076654;28;8791;-52
2022/06/01 10:09:49;;;;;;;;;29.25;27.50;;;;;;;;5076584;28;8771;-54
2022/06/01 10:12:33;;;;;;;;;34.50;28.00;;;;;;;;5076016;28;8807;-51
2022/06/01 10:15:37;;;;;;;;;25.25;22.25;;;;;;;;5075943;28;8787;-54
2022/06/01 10:18:25;;;;;;;;;31.00;26.50;;;;;;;;5076237;28;8787;-55
2022/06/01 10:21:17;;;;;;;;;28.50;24.00;;;;;;;;5075825;28;8810;-55
2022/06/01 10:24:05;;;;;;;;;26.50;20.75;;;;;;;;5076740;28;8906;-54
2022/06/01 10:26:55;;;;;;;;;19.75;15.75;;;;;;;;5075266;28;8779;-57
2022/06/01 10:29:45;;;;;;;;;27.25;20.75;;;;;;;;5075981;28;8771;-55
2022/06/01 10:32:35;;;;;;;;;23.75;19.50;;;;;;;;5074791;28;8787;-51
2022/06/01 10:35:34;;;;;;;;;21.25;17.00;;;;;;;;5075947;28;8775;-56
2022/06/01 10:38:32;;;;;;;;;22.00;17.75;;;;;;;;5079626;28;8776;-55
2022/06/01 10:41:25;;;;;;;;;24.25;21.50;;;;;;;;5095820;28;8817;-54
2022/06/01 10:44:41;;;;;;;;;25.50;20.25;;;;;;;;5095958;28;8773;-53
2022/06/01 10:47:37;;;;;;;;;21.75;19.00;;;;;;;;5095355;28;8801;-54
2022/06/01 10:50:28;;;;;;;;;15.50;15.50;;;;;;;;5093807;28;8765;-56
2022/06/01 10:53:35;;;;;;;;;17.50;16.25;;;;;;;;5095697;28;8781;-52
2022/06/01 10:56:21;;;;;;;;;19.75;17.00;;;;;;;;5095651;28;8785;-55
2022/06/01 10:59:08;;;;;;;;;20.25;16.75;;;;;;;;5094429;28;8797;-58
2022/06/01 11:02:07;;;;;;;;;16.75;13.75;;;;;;;;5095641;28;8780;-52
2022/06/01 11:04:54;;;;;;;;;17.75;14.75;;;;;;;;5095122;28;8781;-56
2022/06/01 11:08:01;;;;;;;;;18.25;13.75;;;;;;;;5094331;28;8788;-59
2022/06/01 11:11:20;;;;;;;;;30.75;22.25;;;;;;;;5095716;28;8804;-56
2022/06/01 11:14:22;;;;;;;;;18.25;14.75;;;;;;;;5095497;28;8777;-54
2022/06/01 11:17:26;;;;;;;;;17.25;17.25;;;;;;;;5093418;28;8800;-54
2022/06/01 11:20:40;;;;;;;;;16.50;12.25;;;;;;;;5083604;28;8765;-56
2022/06/01 11:23:37;;;;;;;;;18.00;15.25;;;;;;;;5093830;28;8785;-56
2022/06/01 11:26:26;;;;;;;;;16.00;15.50;;;;;;;;5095214;28;9539;-52
2022/06/01 11:29:11;;;;;;;;;18.75;18.00;;;;;;;;5095750;28;9394;-53
2022/06/01 11:31:59;;;;;;;;;15.25;11.75;;;;;;;;5096099;28;9559;-58
2022/06/01 11:34:43;;;;;;;;;21.75;17.25;;;;;;;;5095885;28;8781;-46
2022/06/01 11:37:40;;;;;;;;;19.75;16.00;;;;;;;;5096250;28;8781;-56
2022/06/01 11:40:31;;;;;;;;;16.00;13.50;;;;;;;;5091847;28;9387;-48
2022/06/01 11:43:27;;;;;;;;;18.50;17.75;;;;;;;;5096041;28;8800;-49
2022/06/01 11:46:16;;;;;;;;;15.00;12.50;;;;;;;;5095968;28;8785;-58
2022/06/01 11:49:09;;;;;;;;;16.00;13.25;;;;;;;;5096048;28;8789;-54
2022/06/01 11:51:54;;;;;;;;;17.25;14.50;;;;;;;;5095834;28;8813;-54
2022/06/01 11:55:10;;;;;;;;;14.00;10.50;;;;;;;;5085641;28;8801;-57
2022/06/01 11:58:02;;;;;;;;;13.75;13.75;;;;;;;;5036396;28;8804;-58
2022/06/01 12:00:57;;;;;;;;;17.25;11.25;;;;;;;;5017717;28;8795;-53
2022/06/01 12:03:47;;;;;;;;;11.50;9.00;;;;;;;;5035328;28;8795;-55
2022/06/01 12:06:49;;;;;;;;;14.75;13.75;;;;;;;;5033642;28;8799;-56
2022/06/01 12:09:52;;;;;;;;;12.75;11.00;;;;;;;;5035976;28;8792;-55
2022/06/01 12:12:46;;;;;;;;;10.25;9.25;;;;;;;;5034726;28;8803;-56
2022/06/01 12:16:02;;;;;;;;;17.25;13.25;;;;;;;;5089897;28;8809;-56
2022/06/01 12:19:09;;;;;;;;;14.50;10.25;;;;;;;;5086165;28;8803;-53
2022/06/01 12:21:58;;;;;;;;;14.25;8.75;;;;;;;;5078330;28;8810;-55
2022/06/01 12:31:17;;;;;;;;;11.50;8.25;;;;;;;;5096334;28;8769;-56
2022/06/01 12:34:40;;;;;;;;;10.25;9.50;;;;;;;;5098386;28;9556;-57
2022/06/01 12:37:30;;;;;;;;;10.50;9.75;;;;;;;;5035522;28;9562;-57
2022/06/01 12:40:20;;;;;;;;;11.50;9.50;;;;;;;;5063075;28;8814;-57
2022/06/01 12:43:14;;;;;;;;;15.00;11.00;;;;;;;;5095373;28;8921;-53
2022/06/01 12:46:02;;;;;;;;;10.75;9.50;;;;;;;;5097998;28;8787;-53
2022/06/01 12:48:49;;;;;;;;;10.25;8.25;;;;;;;;5113701;27;8913;-56
2022/06/01 12:51:38;;;;;;;;;7.00;6.50;;;;;;;;5098144;28;9566;-51
2022/06/01 12:54:45;;;;;;;;;10.25;9.25;;;;;;;;5098211;28;8764;-55
2022/06/01 12:57:33;;;;;;;;;6.00;5.25;;;;;;;;5083374;28;8806;-52
2022/06/01 13:00:24;;;;;;;;;8.25;7.00;;;;;;;;5096852;28;8795;-53
2022/06/01 13:03:14;;;;;;;;;10.00;8.00;;;;;;;;5098457;28;8799;-55
2022/06/01 13:06:02;;;;;;;;;10.75;9.00;;;;;;;;5095910;28;9569;-53
2022/06/01 13:08:58;;;;;;;;;8.50;7.00;;;;;;;;5098036;28;8780;-54
2022/06/01 13:11:56;;;;;;;;;10.75;8.75;;;;;;;;5107622;27;8778;-52
2022/06/01 13:14:45;;;;;;;;;11.00;9.00;;;;;;;;5118386;27;8766;-57
2022/06/01 13:17:51;;;;;;;;;12.00;7.50;;;;;;;;5118032;27;8763;-48
2022/06/01 13:20:54;;;;;;;;;7.25;6.25;;;;;;;;5118262;27;8783;-53
2022/06/01 13:24:00;;;;;;;;;9.50;7.75;;;;;;;;5097774;28;8815;-54
2022/06/01 13:26:53;;;;;;;;;12.00;10.00;;;;;;;;5097481;28;8783;-52
2022/06/01 13:29:40;;;;;;;;;9.00;6.25;;;;;;;;5116053;27;9557;-54
2022/06/01 13:32:52;;;;;;;;;6.75;6.00;;;;;;;;5116609;27;8790;-53
2022/06/01 13:35:42;;;;;;;;;7.75;7.75;;;;;;;;5117932;27;8786;-56
2022/06/01 13:38:42;;;;;;;;;8.50;7.50;;;;;;;;5117023;27;8790;-51
2022/06/01 13:41:45;;;;;;;;;8.00;5.25;;;;;;;;5116910;27;8803;-54
2022/06/01 13:44:49;;;;;;;;;7.25;7.00;;;;;;;;5117478;27;8791;-59
2022/06/01 13:47:36;;;;;;;;;14.00;8.25;;;;;;;;5114492;27;9609;-52
2022/06/01 13:50:25;;;;;;;;;7.25;7.25;;;;;;;;5115527;27;8794;-55
2022/06/01 13:53:26;;;;;;;;;9.00;9.00;;;;;;;;5112772;27;8788;-50
2022/06/01 13:56:44;;;;;;;;;7.00;7.00;;;;;;;;5099253;27;9528;-59
2022/06/01 13:59:49;;;;;;;;;8.75;7.25;;;;;;;;5085849;27;8801;-53
2022/06/01 14:02:37;;;;;;;;;8.25;8.00;;;;;;;;5080635;27;8801;-54
2022/06/01 14:05:24;;;;;;;;;6.00;6.00;;;;;;;;5096050;27;8773;-51
2022/06/01 14:08:14;;;;;;;;;6.75;5.75;;;;;;;;5095315;27;9565;-50
2022/06/01 14:11:01;;;;;;;;;9.50;6.25;;;;;;;;5099486;27;8773;-56
2022/06/01 14:14:07;;;;;;;;;5.25;5.25;;;;;;;;5090967;27;8790;-54
2022/06/01 14:16:55;;;;;;;;;11.00;7.00;;;;;;;;5117102;27;9573;-56
2022/06/01 14:19:40;;;;;;;;;7.50;5.25;;;;;;;;5115882;27;8790;-50
2022/06/01 14:22:45;;;;;;;;;8.50;6.50;;;;;;;;5117439;27;8790;-55
2022/06/01 14:28:37;;;;;;;;;5.00;4.75;;;;;;;;5117358;27;8767;-51
2022/06/01 14:31:28;;;;;;;;;6.25;5.00;;;;;;;;5117406;27;8803;-56
2022/06/01 14:34:22;;;;;;;;;7.00;5.25;;;;;;;;5117250;27;8787;-53
2022/06/01 14:37:07;;;;;;;;;5.50;5.50;;;;;;;;5116965;27;8783;-56
2022/06/01 14:39:51;;;;;;;;;7.50;6.25;;;;;;;;5116560;27;8802;-53
2022/06/01 14:42:36;;;;;;;;;7.50;6.25;;;;;;;;5117177;27;8806;-52
2022/06/01 14:45:21;;;;;;;;;6.00;6.00;;;;;;;;5117007;28;8775;-58
2022/06/01 14:48:05;;;;;;;;;9.00;6.00;;;;;;;;5116936;28;8763;-56
2022/06/01 14:50:49;;;;;;;;;6.00;5.75;;;;;;;;5092842;28;8809;-52
2022/06/01 14:53:40;;;;;;;;;10.25;6.00;;;;;;;;5095992;28;8788;-53
2022/06/01 14:56:25;;;;;;;;;5.50;4.00;;;;;;;;5096240;28;8772;-55
2022/06/01 14:59:11;;;;;;;;;5.00;5.00;;;;;;;;5096015;28;8797;-54
2022/06/01 15:01:56;;;;;;;;;7.25;5.50;;;;;;;;5093698;28;8796;-52
2022/06/01 15:04:45;;;;;;;;;10.50;5.00;;;;;;;;5096227;28;8772;-53
2022/06/01 15:07:31;;;;;;;;;6.25;4.75;;;;;;;;5096304;28;8796;-50
2022/06/01 15:10:20;;;;;;;;;5.25;4.50;;;;;;;;5096489;28;8776;-54
2022/06/01 15:13:04;;;;;;;;;5.25;4.75;;;;;;;;5096127;28;8769;-53
2022/06/01 15:15:54;;;;;;;;;0.00;0.00;;;;;;;;5096229;28;8812;-53
2022/06/01 15:19:03;;;;;;;;;8.50;6.75;;;;;;;;5096126;28;8919;-54
2022/06/01 15:21:51;;;;;;;;;6.00;4.50;;;;;;;;5096307;28;8808;-57
2022/06/01 15:24:52;;;;;;;;;7.50;6.00;;;;;;;;5096308;28;8788;-54
2022/06/01 15:27:39;;;;;;;;;8.00;5.75;;;;;;;;5096225;28;8792;-54
2022/06/01 15:39:44;;;;;;;;;5.00;3.75;;;;;;;;5099499;28;8804;-54
2022/06/01 15:42:29;;;;;;;;;3.00;3.00;;;;;;;;5100023;28;8933;-52
2022/06/01 15:45:20;;;;;;;;;8.50;5.50;;;;;;;;5099606;28;8825;-51
2022/06/01 15:48:08;;;;;;;;;11.25;8.50;;;;;;;;5099746;28;8796;-54
2022/06/01 15:50:54;;;;;;;;;28.50;24.50;;;;;;;;5084042;28;8773;-58
2022/06/01 15:53:40;;;;;;;;;19.25;15.75;;;;;;;;5099927;28;8781;-58
2022/06/01 15:56:28;;;;;;;;;6.50;6.50;;;;;;;;5099670;28;8796;-55
2022/06/01 16:02:07;;;;;;;;;17.75;16.00;;;;;;;;5056019;28;8801;-50
2022/06/01 16:05:13;;;;;;;;;22.00;20.75;;;;;;;;5056661;28;8801;-53
2022/06/01 16:08:01;;;;;;;;;21.50;20.00;;;;;;;;5056259;28;8801;-56
2022/06/01 16:10:49;;;;;;;;;16.00;12.75;;;;;;;;5056589;28;8785;-56
2022/06/01 16:13:34;;;;;;;;;23.75;19.25;;;;;;;;5042397;28;9552;-59
2022/06/01 16:16:19;;;;;;;;;18.00;12.25;;;;;;;;5056479;28;8793;-51
2022/06/01 16:19:04;;;;;;;;;11.50;9.25;;;;;;;;5056090;28;8797;-54
2022/06/01 16:21:56;;;;;;;;;9.25;7.75;;;;;;;;5056555;28;8805;-54
2022/06/01 16:24:40;;;;;;;;;25.25;17.00;;;;;;;;5036502;28;8793;-55
2022/06/01 16:27:24;;;;;;;;;16.00;14.25;;;;;;;;5036344;28;8769;-53
2022/06/01 16:30:12;;;;;;;;;6.50;5.00;;;;;;;;5036253;28;8809;-55
2022/06/01 16:32:57;;;;;;;;;9.00;8.00;;;;;;;;5036286;28;8797;-54
2022/06/01 16:35:42;;;;;;;;;12.75;7.50;;;;;;;;5036223;28;9564;-54
2022/06/01 16:38:30;;;;;;;;;13.50;12.00;;;;;;;;5047990;28;8800;-52
2022/06/01 16:41:19;;;;;;;;;9.25;5.50;;;;;;;;5097480;28;8821;-57
2022/06/01 16:44:06;;;;;;;;;17.00;13.00;;;;;;;;5098959;28;8797;-54
2022/06/01 16:46:50;;;;;;;;;18.50;16.75;;;;;;;;5093975;28;8784;-54
2022/06/01 16:49:36;;;;;;;;;15.75;13.75;;;;;;;;5098466;28;8781;-54
2022/06/01 16:52:26;;;;;;;;;18.50;15.75;;;;;;;;5098404;28;8773;-53
2022/06/01 16:55:11;;;;;;;;;9.25;8.25;;;;;;;;5068860;28;8777;-55
2022/06/01 16:57:56;;;;;;;;;6.25;6.25;;;;;;;;5097450;28;8796;-57
2022/06/01 17:00:41;;;;;;;;;8.25;6.25;;;;;;;;5098302;28;8808;-55
2022/06/01 17:03:27;;;;;;;;;7.50;3.75;;;;;;;;5098832;28;8804;-54
2022/06/01 17:06:12;;;;;;;;;5.75;5.00;;;;;;;;5098256;28;8793;-55
2022/06/01 17:08:57;;;;;;;;;8.25;6.00;;;;;;;;5097996;28;9654;-56
2022/06/01 17:11:41;;;;;;;;;4.75;4.25;;;;;;;;5098196;28;8793;-55
2022/06/01 17:14:30;;;;;;;;;8.75;6.25;;;;;;;;5098207;28;8801;-52
2022/06/01 17:17:28;;;;;;;;;12.75;10.75;;;;;;;;5097786;28;8785;-54
2022/06/01 17:20:17;;;;;;;;;9.25;5.75;;;;;;;;5098031;28;8781;-53
2022/06/01 17:23:23;;;;;;;;;8.50;6.75;;;;;;;;5096803;28;8805;-52
2022/06/01 17:26:11;;;;;;;;;7.50;5.25;;;;;;;;5097987;28;9288;-51
2022/06/01 17:28:58;;;;;;;;;7.00;6.75;;;;;;;;5053064;28;9856;-57
2022/06/01 17:31:47;;;;;;;;;5.75;4.50;;;;;;;;5097711;28;8777;-55
2022/06/01 17:34:32;;;;;;;;;9.50;7.00;;;;;;;;5097149;28;9591;-52
2022/06/01 17:37:37;;;;;;;;;6.25;6.25;;;;;;;;5097428;28;8800;-55
2022/06/01 17:40:24;;;;;;;;;8.75;7.75;;;;;;;;5103708;27;9577;-54
2022/06/01 17:43:08;;;;;;;;;8.50;6.00;;;;;;;;5117819;27;8787;-56